createdAt,value
2023-04-29T00:02:41.526Z,95.8
2023-04-29T00:08:36.003Z,96.2
2023-04-29T00:14:29.027Z,95
2023-04-29T00:20:21.561Z,94
2023-04-29T00:26:13.861Z,93.4
2023-04-29T00:32:06.288Z,93.3
2023-04-29T00:37:58.770Z,92.5
2023-04-29T00:43:51.546Z,92.6
2023-04-29T00:49:43.664Z,92.4
2023-04-29T00:55:35.398Z,92.7
2023-04-29T01:01:27.595Z,91.3
2023-04-29T01:07:20.356Z,93.1
2023-04-29T01:13:12.250Z,92.8
2023-04-29T01:19:04.896Z,92.9
2023-04-29T01:24:57.307Z,92
2023-04-29T01:30:51.072Z,92
2023-04-29T01:36:42.559Z,92.4
2023-04-29T01:42:35.568Z,92.3
2023-04-29T01:48:27.960Z,91.4
2023-04-29T01:54:18.546Z,91.2
2023-04-29T02:00:11.863Z,89.7
2023-04-29T02:06:04.522Z,88.5
2023-04-29T02:11:56.874Z,87.7
2023-04-29T02:17:48.691Z,87.6
2023-04-29T02:23:40.435Z,88.5
2023-04-29T02:29:33.734Z,88.5
2023-04-29T02:35:25.994Z,90.5
2023-04-29T02:41:17.876Z,94
2023-04-29T02:47:11.251Z,93.1
2023-04-29T02:53:04.374Z,92.2
2023-04-29T02:58:54.852Z,92.9
2023-04-29T03:04:46.551Z,93.8
2023-04-29T03:10:41.938Z,93
2023-04-29T03:16:33.602Z,93.7
2023-04-29T03:22:26.785Z,93.5
2023-04-29T03:28:19.724Z,93.6
2023-04-29T03:34:12.197Z,93.9
2023-04-29T03:40:04.257Z,93.8
2023-04-29T03:45:55.779Z,94.3
2023-04-29T03:51:48.134Z,94.5
2023-04-29T03:57:44.062Z,95.1
2023-04-29T04:03:36.631Z,94.7
2023-04-29T04:09:29.152Z,95.5
2023-04-29T04:15:21.828Z,96.2
2023-04-29T04:21:14.159Z,98.4
2023-04-29T04:27:07.278Z,98.4
2023-04-29T04:32:59.802Z,99.4
2023-04-29T04:38:52.146Z,100
2023-04-29T04:44:44.596Z,100
2023-04-29T04:50:36.564Z,100
2023-04-29T04:56:28.904Z,100
2023-04-29T05:02:21.308Z,100
2023-04-29T05:08:25.662Z,100
2023-04-29T05:14:25.470Z,100
2023-04-29T05:20:21.108Z,100
2023-04-29T05:26:22.610Z,100
2023-04-29T05:32:15.946Z,100
2023-04-29T05:38:15.646Z,100
2023-04-29T05:44:10.450Z,100
2023-04-29T05:50:03.592Z,100
2023-04-29T05:55:58.692Z,100
2023-04-29T06:01:50.779Z,100
2023-04-29T06:07:48.953Z,100
2023-04-29T06:13:43.364Z,100
2023-04-29T06:19:41.281Z,100
2023-04-29T06:25:34.407Z,100
2023-04-29T06:31:28.730Z,100
2023-04-29T06:37:25.218Z,100
2023-04-29T06:43:23.867Z,100
2023-04-29T06:49:15.910Z,100
2023-04-29T06:55:11.177Z,100
2023-04-29T07:01:04.515Z,100
2023-04-29T07:06:58.300Z,100
2023-04-29T07:12:52.558Z,100
2023-04-29T07:18:49.870Z,100
2023-04-29T07:24:41.024Z,100
2023-04-29T07:30:35.160Z,100
2023-04-29T07:36:31.467Z,100
2023-04-29T07:42:25.672Z,100
2023-04-29T07:48:19.375Z,100
2023-04-29T07:54:26.598Z,100
2023-04-29T08:00:17.894Z,100
2023-04-29T08:06:15.191Z,100
2023-04-29T08:12:09.334Z,100
2023-04-29T08:18:09.043Z,100
2023-04-29T08:24:10.696Z,100
2023-04-29T08:30:21.723Z,100
2023-04-29T08:36:29.663Z,100
2023-04-29T08:42:22.332Z,100
2023-04-29T08:48:18.076Z,100
2023-04-29T08:54:15.539Z,100
2023-04-29T09:00:22.723Z,100
2023-04-29T09:06:25.537Z,100
2023-04-29T09:12:20.641Z,100
2023-04-29T09:18:31.810Z,100
2023-04-29T09:31:21.297Z,99.3
2023-04-29T09:37:16.207Z,99.9
2023-04-29T09:43:38.106Z,98.4
2023-04-29T09:50:07.999Z,98.2
2023-04-29T10:22:30.492Z,93.6
2023-04-29T10:28:34.270Z,93.4
2023-04-29T10:47:18.544Z,90
2023-04-29T11:23:38.208Z,90.6
2023-04-29T11:29:42.701Z,89.5
2023-04-29T11:35:39.805Z,91.1
2023-04-29T11:41:31.392Z,91.5
2023-04-29T11:47:28.138Z,92.5
2023-04-29T11:53:21.026Z,92.5
2023-04-29T11:59:12.120Z,92.8
2023-04-29T12:05:04.573Z,92.3
2023-04-29T12:10:58.156Z,92.7
2023-04-29T12:16:49.933Z,93.7
2023-04-29T12:22:41.553Z,94.2
2023-04-29T12:28:33.182Z,95.7
2023-04-29T12:34:27.769Z,95.4
2023-04-29T12:40:19.439Z,95.5
2023-04-29T12:46:11.783Z,95.2
2023-04-29T12:52:05.869Z,95.5
2023-04-29T12:58:03.667Z,95.5
2023-04-29T13:03:56.984Z,96.2
2023-04-29T13:10:03.421Z,96
2023-04-29T13:15:59.630Z,97.2
2023-04-29T13:21:52.585Z,97.5
2023-04-29T13:27:49.596Z,98.8
2023-04-29T13:33:49.220Z,98.4
2023-04-29T13:39:59.321Z,98.1
2023-04-29T13:46:00.466Z,97.9
2023-04-29T13:52:33.908Z,97.4
2023-04-29T14:00:45.165Z,97.4
2023-04-29T14:07:25.730Z,98
2023-04-29T14:13:18.868Z,96.4
2023-04-29T14:19:10.572Z,95.5
2023-04-29T14:25:02.806Z,93.8
2023-04-29T14:30:56.226Z,94.1
2023-04-29T14:36:51.135Z,92.6
2023-04-29T14:42:50.658Z,91.5
2023-04-29T14:48:41.959Z,91.2
2023-04-29T14:54:35.081Z,90.6
2023-04-29T15:00:27.535Z,90.7
2023-04-29T15:06:21.051Z,90.4
2023-04-29T15:12:12.112Z,88.3
2023-04-29T15:18:04.530Z,88.8
2023-04-29T15:23:54.452Z,88.2
2023-04-29T15:29:46.570Z,87.6
2023-04-29T15:35:38.004Z,86.9
2023-04-29T15:41:28.341Z,87.3
2023-04-29T15:47:20.602Z,87.3
2023-04-29T15:53:11.672Z,85.5
2023-04-29T15:59:03.757Z,85.3
2023-04-29T16:04:56.341Z,84.9
2023-04-29T16:10:48.787Z,86
2023-04-29T16:16:52.703Z,85.8
2023-04-29T16:18:20.241Z,86.2
2023-04-29T16:24:10.597Z,85.8
2023-04-29T16:30:03.356Z,86.7
2023-04-29T16:35:56.814Z,86.2
2023-04-29T16:41:50.653Z,85.5
2023-04-29T16:48:52.052Z,86.5
2023-04-29T16:54:45.020Z,86.3
2023-04-29T17:00:35.570Z,86
2023-04-29T17:06:27.029Z,86.4
2023-04-29T17:12:19.316Z,86.4
2023-04-29T17:18:11.830Z,86.1
2023-04-29T17:24:03.005Z,87.1
2023-04-29T17:29:55.839Z,85.9
2023-04-29T17:35:47.735Z,85.1
2023-04-29T17:41:39.266Z,85.5
2023-04-29T17:47:31.380Z,86.1
2023-04-29T17:53:35.482Z,86.4
2023-04-29T17:59:28.326Z,86.7
2023-04-29T18:05:25.513Z,86.4
2023-04-29T18:11:26.796Z,87.6
2023-04-29T18:17:19.697Z,87.6
2023-04-29T18:23:11.727Z,88
2023-04-29T18:29:04.274Z,89
2023-04-29T18:34:55.207Z,90.4
2023-04-29T18:40:47.445Z,90
2023-04-29T18:46:52.377Z,91.5
2023-04-29T18:53:04.058Z,93.9
2023-04-29T18:58:56.809Z,93.8
2023-04-29T19:04:49.026Z,95
2023-04-29T19:16:52.160Z,95.4
2023-04-29T19:22:55.276Z,96.1
2023-04-29T19:28:46.607Z,95.7
2023-04-29T19:34:40.574Z,96.6
2023-04-29T19:40:41.137Z,97
2023-04-29T19:46:34.178Z,96.6
2023-04-29T19:52:33.082Z,97.5
2023-04-29T19:58:26.626Z,98
2023-04-29T20:04:19.978Z,98
2023-04-29T20:10:12.001Z,97.7
2023-04-29T20:16:04.738Z,97.6
2023-04-29T20:21:59.240Z,97.1
2023-04-29T20:27:56.272Z,100
2023-04-29T20:40:21.958Z,98.4
2023-04-29T20:46:16.676Z,99.4
2023-04-29T20:52:24.859Z,100
2023-04-29T20:58:18.127Z,100
2023-04-29T21:04:09.230Z,100
2023-04-29T21:10:01.642Z,100
2023-04-29T21:15:53.647Z,100
2023-04-29T21:21:46.833Z,100
2023-04-29T21:27:39.926Z,100
2023-04-29T21:33:32.357Z,100
2023-04-29T21:39:26.359Z,100
2023-04-29T21:45:18.615Z,100
2023-04-29T21:51:11.117Z,100
2023-04-29T21:57:01.314Z,100
2023-04-29T22:02:53.909Z,100
2023-04-29T22:08:47.271Z,100
2023-04-29T22:14:39.182Z,100
2023-04-29T22:20:32.368Z,100
2023-04-29T22:26:24.214Z,100
2023-04-29T22:32:17.235Z,100
2023-04-29T22:38:09.633Z,100
2023-04-29T22:44:02.165Z,100
2023-04-29T22:49:55.428Z,100
2023-04-29T22:55:49.429Z,100
2023-04-29T23:01:42.191Z,100
2023-04-29T23:07:35.805Z,100
2023-04-29T23:13:29.897Z,100
2023-04-29T23:19:21.831Z,100
2023-04-29T23:25:14.021Z,100
2023-04-29T23:31:05.833Z,100
2023-04-29T23:36:58.254Z,100
2023-04-29T23:42:50.388Z,100
2023-04-29T23:48:42.428Z,100
2023-04-29T23:54:35.335Z,100
